createdAt,value
2023-04-08T00:02:13.017Z,7.85
2023-04-08T00:04:39.560Z,6.95
2023-04-08T00:07:06.189Z,7.95
2023-04-08T00:09:32.926Z,6.95
2023-04-08T00:11:59.441Z,7.93
2023-04-08T00:14:25.855Z,7.47
2023-04-08T00:16:52.286Z,7.75
2023-04-08T00:19:18.773Z,8.18
2023-04-08T00:21:45.213Z,7.30
2023-04-08T00:24:11.748Z,8.07
2023-04-08T00:26:38.176Z,7.53
2023-04-08T00:29:04.670Z,7.40
2023-04-08T00:31:31.086Z,8.18
2023-04-08T00:33:58.853Z,6.97
2023-04-08T00:36:26.620Z,10.07
2023-04-08T00:38:53.095Z,9.45
2023-04-08T00:41:19.652Z,7.53
2023-04-08T00:43:46.143Z,7.13
2023-04-08T00:46:12.750Z,8.48
2023-04-08T00:48:39.204Z,7.27
2023-04-08T00:51:06.044Z,7.05
2023-04-08T00:53:32.578Z,6.47
2023-04-08T00:56:01.222Z,6.13
2023-04-08T00:58:29.352Z,7.13
2023-04-08T01:01:07.009Z,7.57
2023-04-08T01:03:54.909Z,7.05
2023-04-08T01:06:36.468Z,6.78
2023-04-08T01:09:06.007Z,8.07
2023-04-08T01:11:35.426Z,6.53
2023-04-08T01:14:06.517Z,7.73
2023-04-08T01:16:34.398Z,8.50
2023-04-08T01:19:01.755Z,7.70
2023-04-08T01:21:29.067Z,6.20
2023-04-08T01:24:09.778Z,7.22
2023-04-08T01:26:36.755Z,6.70
2023-04-08T01:29:04.303Z,6.72
2023-04-08T01:31:32.388Z,7.40
2023-04-08T01:34:01.195Z,6.80
2023-04-08T01:36:29.364Z,5.65
2023-04-08T01:38:56.405Z,7.13
2023-04-08T01:41:23.074Z,7.30
2023-04-08T01:43:50.696Z,6.05
2023-04-08T01:46:17.402Z,6.35
2023-04-08T01:48:44.850Z,6.50
2023-04-08T01:51:11.461Z,5.57
2023-04-08T01:53:37.941Z,6.82
2023-04-08T01:56:12.805Z,8.23
2023-04-08T01:58:47.519Z,7.93
2023-04-08T02:01:18.418Z,5.90
2023-04-08T02:03:47.560Z,5.77
2023-04-08T02:06:14.392Z,7.15
2023-04-08T02:08:40.792Z,6.95
2023-04-08T02:11:07.252Z,6.05
2023-04-08T02:13:33.983Z,5.80
2023-04-08T02:16:12.472Z,6.57
2023-04-08T02:18:43.550Z,5.20
2023-04-08T02:21:14.642Z,5.70
2023-04-08T02:23:42.832Z,8.23
2023-04-08T02:26:19.243Z,6.30
2023-04-08T02:28:48.358Z,5.50
2023-04-08T02:31:17.221Z,6.45
2023-04-08T02:33:44.532Z,6.72
2023-04-08T02:36:14.350Z,6.70
2023-04-08T02:38:40.953Z,6.68
2023-04-08T02:41:07.321Z,5.37
2023-04-08T02:43:33.743Z,6.28
2023-04-08T02:46:03.428Z,6.82
2023-04-08T02:48:30.913Z,6.32
2023-04-08T02:50:57.321Z,6.93
2023-04-08T02:53:24.564Z,7.67
2023-04-08T02:55:51.089Z,7.13
2023-04-08T02:58:17.590Z,7.53
2023-04-08T03:00:44.055Z,7.57
2023-04-08T03:03:10.632Z,7.57
2023-04-08T03:05:37.118Z,7.77
2023-04-08T03:08:03.680Z,7.75
2023-04-08T03:10:30.269Z,8.88
2023-04-08T03:12:56.716Z,7.85
2023-04-08T03:15:23.208Z,8.25
2023-04-08T03:17:49.679Z,8.40
2023-04-08T03:20:16.159Z,8.80
2023-04-08T03:22:42.589Z,8.57
2023-04-08T03:25:09.332Z,8.82
2023-04-08T03:27:35.758Z,8.88
2023-04-08T03:30:02.287Z,8.90
2023-04-08T03:32:28.885Z,9.35
2023-04-08T03:34:55.319Z,9.77
2023-04-08T03:37:21.717Z,9.73
2023-04-08T03:39:48.112Z,9.57
2023-04-08T03:42:14.584Z,9.53
2023-04-08T03:44:41.060Z,12.35
2023-04-08T03:47:07.494Z,10.27
2023-04-08T03:49:33.868Z,8.95
2023-04-08T03:52:00.266Z,9.93
2023-04-08T03:54:26.653Z,8.97
2023-04-08T03:56:53.042Z,10.07
2023-04-08T03:59:19.513Z,10.73
2023-04-08T04:01:46.354Z,9.70
2023-04-08T04:04:13.083Z,9.75
2023-04-08T04:06:39.680Z,8.67
2023-04-08T04:09:06.036Z,8.70
2023-04-08T04:11:35.178Z,8.80
2023-04-08T04:14:01.709Z,7.03
2023-04-08T04:16:28.475Z,6.22
2023-04-08T04:18:55.807Z,5.33
2023-04-08T04:21:22.163Z,6.03
2023-04-08T04:23:48.636Z,6.38
2023-04-08T04:26:15.313Z,6.40
2023-04-08T04:28:41.778Z,6.45
2023-04-08T04:31:08.221Z,6.87
2023-04-08T04:33:34.706Z,6.15
2023-04-08T04:36:01.368Z,6.78
2023-04-08T04:38:28.057Z,6.55
2023-04-08T04:40:54.457Z,6.22
2023-04-08T04:43:20.891Z,6.97
2023-04-08T04:45:47.360Z,6.28
2023-04-08T04:48:13.757Z,7.47
2023-04-08T04:50:40.190Z,8.32
2023-04-08T04:53:06.551Z,5.03
2023-04-08T04:55:33.007Z,4.53
2023-04-08T04:57:59.448Z,5.75
2023-04-08T05:00:25.900Z,5.30
2023-04-08T05:02:52.534Z,5.15
2023-04-08T05:05:19.319Z,4.72
2023-04-08T05:07:45.891Z,5.20
2023-04-08T05:10:12.388Z,4.70
2023-04-08T05:12:38.950Z,5.50
2023-04-08T05:15:06.634Z,5.13
2023-04-08T05:17:33.131Z,5.05
2023-04-08T05:19:59.581Z,4.90
2023-04-08T05:22:26.118Z,4.38
2023-04-08T05:24:52.476Z,3.88
2023-04-08T05:27:18.894Z,3.67
2023-04-08T05:29:45.285Z,3.50
2023-04-08T05:32:11.681Z,2.53
2023-04-08T05:34:38.171Z,1.40
2023-04-08T05:37:04.734Z,2.67
2023-04-08T05:39:31.374Z,2.88
2023-04-08T05:41:57.741Z,2.20
2023-04-08T05:44:24.159Z,1.97
2023-04-08T05:46:50.780Z,2.17
2023-04-08T05:49:17.594Z,1.80
2023-04-08T05:51:44.014Z,1.30
2023-04-08T05:54:10.451Z,1.77
2023-04-08T05:56:36.880Z,2.50
2023-04-08T05:59:03.333Z,2.83
2023-04-08T06:01:29.799Z,2.67
2023-04-08T06:03:56.802Z,2.78
2023-04-08T06:06:25.416Z,2.45
2023-04-08T06:08:52.337Z,2.93
2023-04-08T06:11:18.902Z,3.20
2023-04-08T06:13:45.443Z,2.85
2023-04-08T06:16:12.906Z,3.50
2023-04-08T06:18:39.445Z,5.15
2023-04-08T06:21:06.308Z,4.47
2023-04-08T06:23:32.975Z,4.55
2023-04-08T06:25:59.381Z,4.90
2023-04-08T06:28:26.275Z,5.00
2023-04-08T06:30:52.769Z,5.00
2023-04-08T06:33:19.271Z,5.37
2023-04-08T06:35:46.040Z,5.15
2023-04-08T06:38:12.472Z,4.95
2023-04-08T06:40:40.326Z,5.40
2023-04-08T06:43:09.673Z,5.28
2023-04-08T06:45:36.093Z,5.23
2023-04-08T06:48:02.629Z,5.18
2023-04-08T06:50:29.088Z,5.55
2023-04-08T06:52:55.514Z,5.40
2023-04-08T06:55:21.998Z,5.35
2023-04-08T06:57:48.373Z,5.53
2023-04-08T07:00:14.946Z,5.63
2023-04-08T07:02:41.573Z,5.32
2023-04-08T07:05:08.540Z,5.25
2023-04-08T07:07:35.773Z,5.30
2023-04-08T07:10:02.139Z,5.57
2023-04-08T07:12:28.488Z,4.65
2023-04-08T07:14:54.976Z,5.07
2023-04-08T07:17:21.473Z,5.50
2023-04-08T07:19:48.100Z,4.95
2023-04-08T07:22:14.523Z,4.87
2023-04-08T07:24:42.877Z,5.43
2023-04-08T07:27:09.319Z,5.85
2023-04-08T07:29:35.739Z,4.90
2023-04-08T07:32:02.153Z,5.18
2023-04-08T07:34:28.558Z,5.37
2023-04-08T07:36:55.000Z,5.15
2023-04-08T07:39:21.406Z,4.38
2023-04-08T07:41:47.802Z,5.65
2023-04-08T07:44:17.062Z,5.00
2023-04-08T07:46:45.622Z,4.90
2023-04-08T07:49:12.478Z,4.45
2023-04-08T07:51:39.385Z,4.55
2023-04-08T07:54:05.944Z,4.30
2023-04-08T07:56:32.339Z,4.80
2023-04-08T07:58:58.883Z,4.90
2023-04-08T08:01:25.562Z,5.00
2023-04-08T08:03:53.504Z,4.50
2023-04-08T08:06:20.790Z,4.65
2023-04-08T08:08:47.349Z,4.75
2023-04-08T08:11:13.861Z,5.40
2023-04-08T08:13:40.380Z,5.15
2023-04-08T08:16:09.215Z,5.22
2023-04-08T08:18:36.348Z,4.95
2023-04-08T08:21:03.016Z,4.82
2023-04-08T08:23:29.529Z,5.00
2023-04-08T08:26:03.409Z,5.40
2023-04-08T08:28:30.105Z,5.05
2023-04-08T08:30:56.886Z,4.65
2023-04-08T08:33:23.365Z,4.43
2023-04-08T08:35:49.903Z,4.73
2023-04-08T08:38:17.629Z,4.78
2023-04-08T08:40:45.116Z,4.15
2023-04-08T08:43:11.672Z,4.15
2023-04-08T08:45:41.880Z,4.82
2023-04-08T08:48:08.953Z,4.83
2023-04-08T08:50:36.112Z,4.68
2023-04-08T08:53:03.248Z,4.85
2023-04-08T08:56:00.202Z,4.45
2023-04-08T08:58:22.366Z,5.32
2023-04-08T09:00:48.795Z,5.80
2023-04-08T09:03:23.603Z,5.05
2023-04-08T09:05:52.828Z,4.55
2023-04-08T09:08:26.244Z,6.07
2023-04-08T09:10:56.694Z,5.47
2023-04-08T09:13:24.788Z,5.20
2023-04-08T09:16:03.461Z,5.25
2023-04-08T09:18:29.883Z,5.75
2023-04-08T09:20:56.279Z,5.43
2023-04-08T09:23:22.685Z,5.65
2023-04-08T09:25:49.122Z,5.90
2023-04-08T09:28:21.106Z,6.00
2023-04-08T09:30:47.844Z,5.85
2023-04-08T09:33:14.377Z,7.03
2023-04-08T09:35:40.953Z,7.65
2023-04-08T09:38:07.470Z,6.63
2023-04-08T09:40:36.388Z,5.95
2023-04-08T09:43:06.378Z,6.28
2023-04-08T09:45:35.462Z,6.35
2023-04-08T09:48:06.779Z,5.80
2023-04-08T09:50:47.185Z,5.33
2023-04-08T09:53:26.447Z,5.47
2023-04-08T09:55:56.985Z,5.35
2023-04-08T09:58:29.246Z,5.60
2023-04-08T10:00:56.105Z,5.90
2023-04-08T10:03:33.562Z,4.73
2023-04-08T10:06:03.176Z,5.38
2023-04-08T10:08:31.536Z,5.70
2023-04-08T10:10:58.571Z,4.75
2023-04-08T10:13:28.223Z,4.85
2023-04-08T10:16:17.263Z,5.40
2023-04-08T10:18:44.388Z,5.25
2023-04-08T10:21:32.778Z,4.95
2023-04-08T10:24:00.959Z,4.93
2023-04-08T10:26:35.813Z,5.20
2023-04-08T10:29:32.102Z,4.93
2023-04-08T10:31:58.813Z,4.85
2023-04-08T10:34:27.384Z,5.40
2023-04-08T10:36:55.716Z,5.40
2023-04-08T10:39:22.450Z,5.35
2023-04-08T10:41:50.561Z,5.20
2023-04-08T10:44:21.192Z,5.57
2023-04-08T10:46:49.611Z,4.18
2023-04-08T10:49:17.536Z,5.07
2023-04-08T10:51:44.567Z,5.22
2023-04-08T10:54:13.630Z,4.33
2023-04-08T10:56:51.145Z,5.00
2023-04-08T10:59:27.613Z,5.07
2023-04-08T11:01:55.325Z,5.95
2023-04-08T11:04:23.683Z,5.07
2023-04-08T11:06:50.374Z,4.83
2023-04-08T11:09:17.189Z,4.40
2023-04-08T11:11:45.342Z,4.88
2023-04-08T11:14:12.812Z,4.20
2023-04-08T11:16:39.607Z,4.43
2023-04-08T11:19:07.206Z,4.77
2023-04-08T11:21:38.550Z,4.43
2023-04-08T11:24:12.293Z,3.60
2023-04-08T11:26:39.566Z,4.78
2023-04-08T11:29:06.713Z,4.25
2023-04-08T11:31:33.934Z,4.43
2023-04-08T11:34:00.436Z,4.47
2023-04-08T11:36:29.109Z,5.13
2023-04-08T11:38:55.823Z,4.47
2023-04-08T11:41:23.002Z,4.53
2023-04-08T11:43:57.038Z,4.53
2023-04-08T11:46:24.079Z,4.00
2023-04-08T11:49:07.951Z,4.25
2023-04-08T11:51:36.083Z,4.18
2023-04-08T11:54:07.371Z,4.10
2023-04-08T11:56:46.864Z,4.00
2023-04-08T11:59:13.323Z,4.10
2023-04-08T12:01:39.768Z,3.90
2023-04-08T12:04:06.886Z,3.38
2023-04-08T12:06:33.927Z,3.63
2023-04-08T12:09:00.382Z,4.90
2023-04-08T12:11:26.758Z,3.63
2023-04-08T12:13:53.520Z,3.28
2023-04-08T12:16:20.624Z,3.90
2023-04-08T12:18:47.181Z,4.03
2023-04-08T12:21:13.846Z,3.30
2023-04-08T12:23:40.239Z,3.33
2023-04-08T12:26:07.324Z,3.10
2023-04-08T12:28:35.049Z,2.88
2023-04-08T12:31:01.722Z,2.80
2023-04-08T12:33:28.074Z,3.00
2023-04-08T12:35:54.496Z,2.95
2023-04-08T12:38:20.946Z,3.00
2023-04-08T12:40:48.635Z,3.30
2023-04-08T12:43:16.887Z,2.63
2023-04-08T12:45:43.576Z,2.63
2023-04-08T12:48:10.581Z,2.60
2023-04-08T12:50:37.036Z,2.95
2023-04-08T12:53:03.418Z,2.63
2023-04-08T12:55:29.798Z,3.00
2023-04-08T12:57:56.621Z,3.10
2023-04-08T13:00:23.100Z,3.67
2023-04-08T13:02:49.636Z,4.28
2023-04-08T13:05:17.082Z,4.50
2023-04-08T13:07:46.120Z,4.53
2023-04-08T13:10:12.466Z,4.70
2023-04-08T13:12:40.303Z,4.18
2023-04-08T13:15:07.701Z,4.38
2023-04-08T13:17:34.117Z,5.10
2023-04-08T13:20:00.805Z,5.78
2023-04-08T13:22:27.180Z,4.60
2023-04-08T13:24:53.589Z,4.75
2023-04-08T13:27:19.963Z,4.72
2023-04-08T13:29:46.313Z,4.50
2023-04-08T13:32:12.782Z,3.80
2023-04-08T13:34:39.226Z,4.43
2023-04-08T13:37:05.726Z,3.45
2023-04-08T13:39:32.093Z,4.35
2023-04-08T13:41:58.481Z,3.90
2023-04-08T13:44:24.884Z,4.53
2023-04-08T13:46:51.556Z,3.77
2023-04-08T13:49:18.423Z,3.85
2023-04-08T13:51:45.060Z,3.40
2023-04-08T13:54:11.494Z,3.90
2023-04-08T13:56:37.873Z,3.95
2023-04-08T13:59:04.667Z,3.93
2023-04-08T14:01:32.007Z,3.80
2023-04-08T14:03:58.517Z,3.97
2023-04-08T14:06:24.896Z,3.95
2023-04-08T14:08:51.481Z,3.58
2023-04-08T14:11:18.159Z,2.97
2023-04-08T14:13:44.539Z,3.80
2023-04-08T14:16:10.948Z,4.03
2023-04-08T14:18:37.603Z,4.03
2023-04-08T14:21:05.358Z,4.15
2023-04-08T14:23:31.852Z,4.20
2023-04-08T14:25:58.267Z,3.15
2023-04-08T14:28:24.640Z,3.15
2023-04-08T14:30:51.045Z,3.40
2023-04-08T14:33:17.777Z,3.40
2023-04-08T14:35:44.317Z,3.43
2023-04-08T14:38:10.738Z,3.92
2023-04-08T14:40:37.887Z,4.75
2023-04-08T14:43:04.586Z,4.47
2023-04-08T14:45:31.457Z,4.13
2023-04-08T14:47:57.880Z,4.03
2023-04-08T14:50:24.364Z,4.18
2023-04-08T14:52:50.846Z,4.20
2023-04-08T14:55:17.302Z,4.53
2023-04-08T14:57:43.707Z,4.53
2023-04-08T15:00:10.789Z,5.10
2023-04-08T15:02:37.256Z,5.07
2023-04-08T15:05:03.937Z,4.03
2023-04-08T15:07:30.343Z,4.65
2023-04-08T15:09:57.137Z,4.57
2023-04-08T15:12:24.473Z,4.77
2023-04-08T15:14:50.951Z,5.07
2023-04-08T15:17:18.325Z,5.00
2023-04-08T15:19:45.013Z,5.10
2023-04-08T15:22:12.145Z,5.28
2023-04-08T15:24:38.608Z,4.60
2023-04-08T15:27:04.971Z,4.75
2023-04-08T15:29:31.490Z,5.00
2023-04-08T15:31:57.898Z,5.05
2023-04-08T15:34:24.279Z,4.25
2023-04-08T15:36:51.038Z,4.33
2023-04-08T15:39:17.393Z,4.50
2023-04-08T15:41:43.810Z,4.10
2023-04-08T15:44:10.221Z,3.97
2023-04-08T15:46:37.805Z,4.35
2023-04-08T15:49:04.638Z,4.17
2023-04-08T15:51:32.432Z,4.00
2023-04-08T15:53:58.931Z,4.47
2023-04-08T15:56:26.976Z,4.07
2023-04-08T15:58:53.816Z,5.00
2023-04-08T16:01:20.482Z,4.23
2023-04-08T16:03:46.955Z,5.00
2023-04-08T16:06:13.702Z,4.88
2023-04-08T16:08:40.513Z,4.80
2023-04-08T16:11:08.058Z,5.22
2023-04-08T16:13:34.779Z,5.27
2023-04-08T16:16:02.483Z,4.95
2023-04-08T16:18:29.564Z,5.95
2023-04-08T16:20:57.038Z,6.53
2023-04-08T16:23:23.732Z,6.03
2023-04-08T16:25:50.247Z,6.07
2023-04-08T16:28:17.931Z,6.60
2023-04-08T16:30:44.442Z,7.10
2023-04-08T16:33:13.734Z,7.60
2023-04-08T16:35:40.256Z,7.07
2023-04-08T16:38:06.675Z,7.83
2023-04-08T16:40:33.547Z,9.13
2023-04-08T16:43:00.964Z,7.30
2023-04-08T16:45:31.238Z,8.77
2023-04-08T16:47:57.969Z,9.23
2023-04-08T16:50:24.827Z,8.80
2023-04-08T16:52:51.632Z,8.73
2023-04-08T16:55:19.224Z,9.70
2023-04-08T16:57:45.864Z,8.52
2023-04-08T17:00:12.563Z,8.75
2023-04-08T17:02:39.059Z,9.43
2023-04-08T17:05:06.240Z,8.80
2023-04-08T17:07:32.885Z,9.10
2023-04-08T17:09:59.505Z,8.88
2023-04-08T17:12:26.288Z,9.73
2023-04-08T17:14:52.853Z,9.23
2023-04-08T17:17:19.233Z,8.25
2023-04-08T17:19:45.635Z,10.55
2023-04-08T17:22:12.037Z,8.90
2023-04-08T17:24:38.580Z,9.65
2023-04-08T17:27:05.508Z,9.23
2023-04-08T17:29:31.960Z,9.65
2023-04-08T17:31:58.449Z,8.20
2023-04-08T17:34:26.287Z,8.40
2023-04-08T17:36:52.742Z,8.52
2023-04-08T17:39:19.139Z,9.57
2023-04-08T17:41:46.109Z,8.48
2023-04-08T17:44:12.612Z,8.75
2023-04-08T17:46:39.123Z,8.38
2023-04-08T17:49:05.656Z,8.15
2023-04-08T17:51:32.818Z,9.67
2023-04-08T17:53:59.270Z,7.80
2023-04-08T17:56:27.820Z,8.98
2023-04-08T17:58:54.324Z,7.85
2023-04-08T18:01:22.569Z,9.68
2023-04-08T18:03:52.305Z,8.60
2023-04-08T18:06:18.995Z,8.50
2023-04-08T18:08:45.561Z,8.93
2023-04-08T18:11:12.274Z,8.85
2023-04-08T18:13:38.714Z,9.23
2023-04-08T18:16:05.744Z,8.53
2023-04-08T18:18:32.217Z,9.40
2023-04-08T18:20:58.646Z,9.02
2023-04-08T18:23:25.089Z,8.95
2023-04-08T18:25:51.482Z,9.13
2023-04-08T18:28:18.038Z,9.37
2023-04-08T18:30:44.502Z,9.30
2023-04-08T18:33:11.169Z,8.93
2023-04-08T18:35:37.589Z,9.15
2023-04-08T18:38:03.994Z,9.80
2023-04-08T18:40:31.252Z,10.73
2023-04-08T18:43:01.997Z,9.63
2023-04-08T18:45:29.276Z,11.10
2023-04-08T18:47:56.041Z,10.80
2023-04-08T18:50:23.171Z,8.73
2023-04-08T18:52:49.672Z,8.47
2023-04-08T18:55:16.239Z,9.10
2023-04-08T18:57:42.752Z,9.85
2023-04-08T19:00:09.451Z,8.95
2023-04-08T19:02:36.017Z,9.98
2023-04-08T19:05:02.503Z,10.10
2023-04-08T19:07:28.899Z,10.02
2023-04-08T19:09:58.582Z,10.13
2023-04-08T19:12:26.238Z,9.93
2023-04-08T19:14:55.890Z,9.70
2023-04-08T19:17:22.265Z,10.07
2023-04-08T19:19:48.670Z,10.38
2023-04-08T19:22:15.231Z,9.95
2023-04-08T19:24:42.014Z,10.68
2023-04-08T19:27:08.422Z,10.50
2023-04-08T19:29:34.986Z,11.03
2023-04-08T19:32:03.028Z,10.00
2023-04-08T19:34:30.018Z,9.40
2023-04-08T19:36:56.425Z,9.63
2023-04-08T19:39:25.232Z,8.40
2023-04-08T19:41:53.044Z,8.70
2023-04-08T19:44:19.448Z,9.07
2023-04-08T19:46:45.891Z,8.90
2023-04-08T19:49:12.635Z,8.63
2023-04-08T19:51:39.071Z,8.98
2023-04-08T19:54:05.472Z,8.00
2023-04-08T19:56:33.973Z,9.55
2023-04-08T19:59:03.478Z,8.95
2023-04-08T20:01:30.118Z,8.90
2023-04-08T20:03:56.956Z,9.13
2023-04-08T20:06:23.438Z,10.10
2023-04-08T20:08:51.812Z,9.15
2023-04-08T20:11:18.749Z,9.73
2023-04-08T20:13:46.796Z,10.07
2023-04-08T20:16:13.524Z,9.68
2023-04-08T20:18:40.022Z,9.10
2023-04-08T20:21:07.926Z,10.00
2023-04-08T20:23:34.336Z,9.90
2023-04-08T20:26:01.423Z,9.32
2023-04-08T20:28:27.845Z,9.27
2023-04-08T20:30:54.469Z,8.83
2023-04-08T20:33:21.060Z,9.57
2023-04-08T20:35:50.365Z,9.23
2023-04-08T20:38:16.833Z,9.85
2023-04-08T20:40:44.092Z,9.45
2023-04-08T20:43:10.767Z,9.37
2023-04-08T20:45:37.990Z,9.57
2023-04-08T20:48:05.540Z,8.65
2023-04-08T20:50:32.878Z,9.95
2023-04-08T20:52:59.571Z,9.05
2023-04-08T20:55:26.157Z,8.87
2023-04-08T20:57:52.668Z,8.68
2023-04-08T21:00:19.302Z,9.43
2023-04-08T21:02:45.803Z,9.70
2023-04-08T21:05:12.472Z,8.45
2023-04-08T21:07:44.101Z,9.80
2023-04-08T21:10:12.510Z,9.38
2023-04-08T21:12:38.984Z,9.63
2023-04-08T21:15:05.913Z,10.18
2023-04-08T21:17:32.317Z,9.40
2023-04-08T21:19:58.790Z,9.50
2023-04-08T21:22:25.246Z,9.88
2023-04-08T21:24:51.660Z,9.90
2023-04-08T21:27:18.132Z,9.63
2023-04-08T21:29:44.545Z,10.23
2023-04-08T21:32:11.507Z,9.50
2023-04-08T21:34:38.022Z,9.73
2023-04-08T21:37:04.445Z,9.85
2023-04-08T21:39:30.875Z,10.02
2023-04-08T21:41:57.418Z,9.50
2023-04-08T21:44:23.878Z,10.00
2023-04-08T21:46:50.330Z,10.48
2023-04-08T21:49:16.710Z,10.30
2023-04-08T21:51:43.153Z,10.07
2023-04-08T21:54:09.540Z,10.65
2023-04-08T21:56:36.037Z,10.00
2023-04-08T21:59:02.395Z,10.05
2023-04-08T22:01:28.766Z,10.10
2023-04-08T22:03:55.620Z,10.27
2023-04-08T22:06:31.644Z,9.52
2023-04-08T22:08:59.256Z,9.23
2023-04-08T22:11:25.869Z,10.45
2023-04-08T22:13:52.273Z,10.85
2023-04-08T22:16:18.726Z,10.23
2023-04-08T22:18:45.428Z,10.57
2023-04-08T22:21:11.903Z,9.23
2023-04-08T22:23:38.879Z,9.65
2023-04-08T22:26:05.324Z,10.70
2023-04-08T22:28:34.103Z,9.60
2023-04-08T22:31:01.186Z,10.13
2023-04-08T22:33:27.922Z,10.67
2023-04-08T22:35:56.837Z,9.27
2023-04-08T22:38:23.302Z,9.15
2023-04-08T22:40:49.681Z,10.02
2023-04-08T22:43:16.115Z,10.80
2023-04-08T22:45:42.525Z,9.07
2023-04-08T22:48:08.897Z,10.27
2023-04-08T22:50:35.741Z,10.60
2023-04-08T22:53:02.161Z,9.73
2023-04-08T22:55:28.513Z,10.95
2023-04-08T22:57:55.021Z,11.90
2023-04-08T23:00:21.668Z,12.60
2023-04-08T23:02:48.114Z,13.95
2023-04-08T23:05:14.734Z,14.18
2023-04-08T23:07:41.210Z,14.70
2023-04-08T23:10:08.293Z,15.07
2023-04-08T23:12:34.782Z,14.50
2023-04-08T23:15:01.343Z,14.93
2023-04-08T23:17:27.830Z,16.02
2023-04-08T23:19:54.285Z,13.55
2023-04-08T23:22:21.727Z,14.27
2023-04-08T23:24:48.230Z,14.48
2023-04-08T23:27:14.598Z,14.35
2023-04-08T23:29:40.968Z,15.70
2023-04-08T23:32:07.427Z,15.95
2023-04-08T23:34:37.449Z,14.90
2023-04-08T23:37:04.384Z,14.30
2023-04-08T23:39:31.814Z,16.08
2023-04-08T23:41:58.289Z,13.88
2023-04-08T23:44:24.779Z,14.77
2023-04-08T23:46:51.273Z,14.53
2023-04-08T23:49:17.744Z,14.88
2023-04-08T23:51:44.165Z,14.48
2023-04-08T23:54:10.542Z,14.98
2023-04-08T23:56:36.946Z,14.68
2023-04-08T23:59:03.299Z,15.17
